sensor_id;sensor_type;location;lat;lon;timestamp;P1;durP1;ratioP1;P2;durP2;ratioP2
18881;SDS011;9573;50.948;11.600;2023-06-14T00:01:14;15.87;;;5.17;;
18881;SDS011;9573;50.948;11.600;2023-06-14T00:03:42;13.97;;;4.63;;
18881;SDS011;9573;50.948;11.600;2023-06-14T00:06:09;15.17;;;5.23;;
18881;SDS011;9573;50.948;11.600;2023-06-14T00:08:36;11.13;;;4.93;;
18881;SDS011;9573;50.948;11.600;2023-06-14T00:11:04;11.67;;;5.17;;
18881;SDS011;9573;50.948;11.600;2023-06-14T00:13:32;12.60;;;4.90;;
18881;SDS011;9573;50.948;11.600;2023-06-14T00:16:00;14.23;;;5.27;;
18881;SDS011;9573;50.948;11.600;2023-06-14T00:18:29;12.17;;;5.00;;
18881;SDS011;9573;50.948;11.600;2023-06-14T00:20:56;17.03;;;5.20;;
18881;SDS011;9573;50.948;11.600;2023-06-14T00:23:23;13.80;;;4.97;;
18881;SDS011;9573;50.948;11.600;2023-06-14T00:25:50;18.90;;;5.20;;
18881;SDS011;9573;50.948;11.600;2023-06-14T00:28:17;10.67;;;4.87;;
18881;SDS011;9573;50.948;11.600;2023-06-14T00:30:45;11.57;;;4.97;;
18881;SDS011;9573;50.948;11.600;2023-06-14T00:33:13;13.97;;;4.90;;
18881;SDS011;9573;50.948;11.600;2023-06-14T00:35:41;13.77;;;5.17;;
18881;SDS011;9573;50.948;11.600;2023-06-14T00:38:08;12.57;;;4.83;;
18881;SDS011;9573;50.948;11.600;2023-06-14T00:40:35;12.07;;;4.60;;
18881;SDS011;9573;50.948;11.600;2023-06-14T00:43:02;12.83;;;5.03;;
18881;SDS011;9573;50.948;11.600;2023-06-14T00:45:29;17.53;;;6.13;;
18881;SDS011;9573;50.948;11.600;2023-06-14T00:48:00;12.60;;;4.80;;
18881;SDS011;9573;50.948;11.600;2023-06-14T00:50:30;13.67;;;5.00;;
18881;SDS011;9573;50.948;11.600;2023-06-14T00:52:58;13.50;;;5.20;;
18881;SDS011;9573;50.948;11.600;2023-06-14T00:55:26;13.30;;;5.10;;
18881;SDS011;9573;50.948;11.600;2023-06-14T00:57:53;14.87;;;4.97;;
18881;SDS011;9573;50.948;11.600;2023-06-14T01:00:21;14.83;;;5.33;;
18881;SDS011;9573;50.948;11.600;2023-06-14T01:02:48;10.70;;;4.60;;
18881;SDS011;9573;50.948;11.600;2023-06-14T01:05:15;14.03;;;5.07;;
18881;SDS011;9573;50.948;11.600;2023-06-14T01:07:49;15.50;;;5.07;;
18881;SDS011;9573;50.948;11.600;2023-06-14T01:10:31;15.13;;;5.23;;
18881;SDS011;9573;50.948;11.600;2023-06-14T01:13:09;11.13;;;4.90;;
18881;SDS011;9573;50.948;11.600;2023-06-14T01:15:42;16.50;;;5.10;;
18881;SDS011;9573;50.948;11.600;2023-06-14T01:18:11;12.73;;;5.03;;
18881;SDS011;9573;50.948;11.600;2023-06-14T01:20:42;16.57;;;5.30;;
18881;SDS011;9573;50.948;11.600;2023-06-14T01:23:13;15.53;;;5.70;;
18881;SDS011;9573;50.948;11.600;2023-06-14T01:25:41;12.60;;;5.40;;
18881;SDS011;9573;50.948;11.600;2023-06-14T01:28:09;14.40;;;5.10;;
18881;SDS011;9573;50.948;11.600;2023-06-14T01:30:38;13.70;;;5.20;;
18881;SDS011;9573;50.948;11.600;2023-06-14T01:33:10;15.90;;;5.70;;
18881;SDS011;9573;50.948;11.600;2023-06-14T01:35:39;15.57;;;5.87;;
18881;SDS011;9573;50.948;11.600;2023-06-14T01:38:06;14.80;;;5.60;;
18881;SDS011;9573;50.948;11.600;2023-06-14T01:40:35;17.33;;;5.70;;
18881;SDS011;9573;50.948;11.600;2023-06-14T01:43:03;12.70;;;5.60;;
18881;SDS011;9573;50.948;11.600;2023-06-14T01:45:32;17.30;;;5.20;;
18881;SDS011;9573;50.948;11.600;2023-06-14T01:47:59;12.77;;;5.47;;
18881;SDS011;9573;50.948;11.600;2023-06-14T01:50:28;15.93;;;5.53;;
18881;SDS011;9573;50.948;11.600;2023-06-14T01:52:55;14.33;;;5.40;;
18881;SDS011;9573;50.948;11.600;2023-06-14T01:55:23;19.37;;;5.60;;
18881;SDS011;9573;50.948;11.600;2023-06-14T01:57:54;18.83;;;5.80;;
18881;SDS011;9573;50.948;11.600;2023-06-14T02:00:21;14.63;;;5.53;;
18881;SDS011;9573;50.948;11.600;2023-06-14T02:02:48;15.20;;;5.27;;
18881;SDS011;9573;50.948;11.600;2023-06-14T02:05:16;13.30;;;5.50;;
18881;SDS011;9573;50.948;11.600;2023-06-14T02:07:44;15.83;;;5.40;;
18881;SDS011;9573;50.948;11.600;2023-06-14T02:10:12;13.53;;;5.37;;
18881;SDS011;9573;50.948;11.600;2023-06-14T02:12:40;14.73;;;5.63;;
18881;SDS011;9573;50.948;11.600;2023-06-14T02:15:09;14.57;;;5.50;;
18881;SDS011;9573;50.948;11.600;2023-06-14T02:17:41;13.23;;;5.60;;
18881;SDS011;9573;50.948;11.600;2023-06-14T02:20:08;12.13;;;5.50;;
18881;SDS011;9573;50.948;11.600;2023-06-14T02:22:37;19.80;;;5.67;;
18881;SDS011;9573;50.948;11.600;2023-06-14T02:25:04;17.53;;;5.73;;
18881;SDS011;9573;50.948;11.600;2023-06-14T02:27:32;16.03;;;5.60;;
18881;SDS011;9573;50.948;11.600;2023-06-14T02:29:59;15.90;;;5.63;;
18881;SDS011;9573;50.948;11.600;2023-06-14T02:32:28;13.00;;;5.70;;
18881;SDS011;9573;50.948;11.600;2023-06-14T02:34:55;13.57;;;5.70;;
18881;SDS011;9573;50.948;11.600;2023-06-14T02:37:22;16.60;;;5.63;;
18881;SDS011;9573;50.948;11.600;2023-06-14T02:39:49;13.00;;;5.27;;
18881;SDS011;9573;50.948;11.600;2023-06-14T02:42:16;15.77;;;5.50;;
18881;SDS011;9573;50.948;11.600;2023-06-14T02:44:43;13.90;;;6.00;;
18881;SDS011;9573;50.948;11.600;2023-06-14T02:47:16;16.07;;;5.53;;
18881;SDS011;9573;50.948;11.600;2023-06-14T02:49:44;17.97;;;5.87;;
18881;SDS011;9573;50.948;11.600;2023-06-14T02:52:11;12.43;;;5.20;;
18881;SDS011;9573;50.948;11.600;2023-06-14T02:54:39;16.20;;;5.10;;
18881;SDS011;9573;50.948;11.600;2023-06-14T02:57:06;16.47;;;5.53;;
18881;SDS011;9573;50.948;11.600;2023-06-14T02:59:34;13.40;;;5.27;;
18881;SDS011;9573;50.948;11.600;2023-06-14T03:02:01;16.27;;;5.70;;
18881;SDS011;9573;50.948;11.600;2023-06-14T03:04:28;19.00;;;6.20;;
18881;SDS011;9573;50.948;11.600;2023-06-14T03:07:01;15.27;;;5.30;;
18881;SDS011;9573;50.948;11.600;2023-06-14T03:09:34;12.83;;;5.47;;
18881;SDS011;9573;50.948;11.600;2023-06-14T03:12:02;14.67;;;5.50;;
18881;SDS011;9573;50.948;11.600;2023-06-14T03:14:31;12.40;;;5.20;;
18881;SDS011;9573;50.948;11.600;2023-06-14T03:16:59;15.07;;;5.27;;
18881;SDS011;9573;50.948;11.600;2023-06-14T03:19:27;14.60;;;5.40;;
18881;SDS011;9573;50.948;11.600;2023-06-14T03:21:54;18.23;;;6.20;;
18881;SDS011;9573;50.948;11.600;2023-06-14T03:24:24;12.13;;;5.13;;
18881;SDS011;9573;50.948;11.600;2023-06-14T03:26:52;14.53;;;5.70;;
18881;SDS011;9573;50.948;11.600;2023-06-14T03:29:19;14.47;;;5.50;;
18881;SDS011;9573;50.948;11.600;2023-06-14T03:31:56;13.90;;;5.07;;
18881;SDS011;9573;50.948;11.600;2023-06-14T03:34:25;14.90;;;4.93;;
18881;SDS011;9573;50.948;11.600;2023-06-14T03:36:52;11.13;;;5.17;;
18881;SDS011;9573;50.948;11.600;2023-06-14T03:39:20;13.17;;;4.80;;
18881;SDS011;9573;50.948;11.600;2023-06-14T03:41:48;18.50;;;4.87;;
18881;SDS011;9573;50.948;11.600;2023-06-14T03:44:15;16.30;;;4.83;;
18881;SDS011;9573;50.948;11.600;2023-06-14T03:46:44;15.27;;;4.97;;
18881;SDS011;9573;50.948;11.600;2023-06-14T03:49:11;14.27;;;4.50;;
18881;SDS011;9573;50.948;11.600;2023-06-14T03:51:38;12.23;;;4.80;;
18881;SDS011;9573;50.948;11.600;2023-06-14T03:54:05;10.50;;;4.47;;
18881;SDS011;9573;50.948;11.600;2023-06-14T03:56:33;14.77;;;4.50;;
18881;SDS011;9573;50.948;11.600;2023-06-14T03:59:02;11.67;;;4.20;;
18881;SDS011;9573;50.948;11.600;2023-06-14T04:01:29;10.43;;;4.30;;
18881;SDS011;9573;50.948;11.600;2023-06-14T04:03:58;16.93;;;4.63;;
18881;SDS011;9573;50.948;11.600;2023-06-14T04:06:26;10.17;;;4.10;;
18881;SDS011;9573;50.948;11.600;2023-06-14T04:08:57;9.90;;;4.23;;
18881;SDS011;9573;50.948;11.600;2023-06-14T04:11:28;10.70;;;4.20;;
18881;SDS011;9573;50.948;11.600;2023-06-14T04:13:55;11.30;;;3.73;;
18881;SDS011;9573;50.948;11.600;2023-06-14T04:16:24;13.37;;;3.80;;
18881;SDS011;9573;50.948;11.600;2023-06-14T04:18:51;12.03;;;3.70;;
18881;SDS011;9573;50.948;11.600;2023-06-14T04:21:20;8.90;;;4.00;;
18881;SDS011;9573;50.948;11.600;2023-06-14T04:23:48;9.53;;;3.93;;
18881;SDS011;9573;50.948;11.600;2023-06-14T04:26:17;12.50;;;4.00;;
18881;SDS011;9573;50.948;11.600;2023-06-14T04:28:46;16.93;;;4.57;;
18881;SDS011;9573;50.948;11.600;2023-06-14T04:31:13;17.77;;;3.90;;
18881;SDS011;9573;50.948;11.600;2023-06-14T04:33:42;12.43;;;3.50;;
18881;SDS011;9573;50.948;11.600;2023-06-14T04:36:11;11.93;;;3.70;;
18881;SDS011;9573;50.948;11.600;2023-06-14T04:38:42;14.67;;;4.10;;
18881;SDS011;9573;50.948;11.600;2023-06-14T04:41:11;11.27;;;3.80;;
18881;SDS011;9573;50.948;11.600;2023-06-14T04:43:38;5.83;;;3.30;;
18881;SDS011;9573;50.948;11.600;2023-06-14T04:46:08;8.07;;;3.60;;
18881;SDS011;9573;50.948;11.600;2023-06-14T04:48:36;10.03;;;3.70;;
18881;SDS011;9573;50.948;11.600;2023-06-14T04:51:06;18.00;;;4.30;;
18881;SDS011;9573;50.948;11.600;2023-06-14T04:53:33;10.80;;;3.60;;
18881;SDS011;9573;50.948;11.600;2023-06-14T04:56:00;9.40;;;3.70;;
18881;SDS011;9573;50.948;11.600;2023-06-14T04:58:28;11.53;;;3.90;;
18881;SDS011;9573;50.948;11.600;2023-06-14T05:00:55;8.93;;;3.70;;
18881;SDS011;9573;50.948;11.600;2023-06-14T05:03:24;10.60;;;3.83;;
18881;SDS011;9573;50.948;11.600;2023-06-14T05:05:52;11.90;;;3.85;;
18881;SDS011;9573;50.948;11.600;2023-06-14T05:08:21;12.50;;;3.80;;
18881;SDS011;9573;50.948;11.600;2023-06-14T05:10:49;10.47;;;3.70;;
18881;SDS011;9573;50.948;11.600;2023-06-14T05:13:16;11.57;;;3.70;;
18881;SDS011;9573;50.948;11.600;2023-06-14T05:15:44;9.30;;;3.60;;
18881;SDS011;9573;50.948;11.600;2023-06-14T05:18:11;13.43;;;4.27;;
18881;SDS011;9573;50.948;11.600;2023-06-14T05:20:40;12.43;;;3.57;;
18881;SDS011;9573;50.948;11.600;2023-06-14T05:23:08;9.10;;;3.70;;
18881;SDS011;9573;50.948;11.600;2023-06-14T05:25:42;11.50;;;3.80;;
18881;SDS011;9573;50.948;11.600;2023-06-14T05:28:10;13.10;;;3.80;;
18881;SDS011;9573;50.948;11.600;2023-06-14T05:30:43;9.25;;;3.60;;
18881;SDS011;9573;50.948;11.600;2023-06-14T05:33:11;11.88;;;3.80;;
18881;SDS011;9573;50.948;11.600;2023-06-14T05:35:39;13.17;;;3.60;;
18881;SDS011;9573;50.948;11.600;2023-06-14T05:38:06;11.43;;;4.00;;
18881;SDS011;9573;50.948;11.600;2023-06-14T05:40:34;11.00;;;3.70;;
18881;SDS011;9573;50.948;11.600;2023-06-14T05:43:02;15.37;;;3.80;;
18881;SDS011;9573;50.948;11.600;2023-06-14T05:45:29;10.20;;;3.80;;
18881;SDS011;9573;50.948;11.600;2023-06-14T05:47:57;8.65;;;3.70;;
18881;SDS011;9573;50.948;11.600;2023-06-14T05:50:24;12.65;;;4.20;;
18881;SDS011;9573;50.948;11.600;2023-06-14T05:52:52;14.30;;;4.07;;
18881;SDS011;9573;50.948;11.600;2023-06-14T05:55:20;9.60;;;3.90;;
18881;SDS011;9573;50.948;11.600;2023-06-14T05:57:47;9.15;;;3.92;;
18881;SDS011;9573;50.948;11.600;2023-06-14T06:00:17;11.65;;;4.10;;
18881;SDS011;9573;50.948;11.600;2023-06-14T06:02:45;16.98;;;4.38;;
18881;SDS011;9573;50.948;11.600;2023-06-14T06:05:14;9.77;;;3.92;;
18881;SDS011;9573;50.948;11.600;2023-06-14T06:07:42;9.88;;;3.75;;
18881;SDS011;9573;50.948;11.600;2023-06-14T06:10:10;15.90;;;4.15;;
18881;SDS011;9573;50.948;11.600;2023-06-14T06:12:37;12.70;;;4.38;;
18881;SDS011;9573;50.948;11.600;2023-06-14T06:15:05;9.63;;;4.18;;
18881;SDS011;9573;50.948;11.600;2023-06-14T06:17:38;10.30;;;4.10;;
18881;SDS011;9573;50.948;11.600;2023-06-14T06:20:06;9.55;;;3.80;;
18881;SDS011;9573;50.948;11.600;2023-06-14T06:22:35;7.90;;;4.05;;
18881;SDS011;9573;50.948;11.600;2023-06-14T06:25:02;7.53;;;3.63;;
18881;SDS011;9573;50.948;11.600;2023-06-14T06:27:31;11.15;;;4.20;;
18881;SDS011;9573;50.948;11.600;2023-06-14T06:29:59;10.05;;;4.03;;
18881;SDS011;9573;50.948;11.600;2023-06-14T06:32:26;8.55;;;4.32;;
18881;SDS011;9573;50.948;11.600;2023-06-14T06:34:55;15.65;;;4.35;;
18881;SDS011;9573;50.948;11.600;2023-06-14T06:37:24;13.05;;;4.32;;
18881;SDS011;9573;50.948;11.600;2023-06-14T06:39:52;10.35;;;4.32;;
18881;SDS011;9573;50.948;11.600;2023-06-14T06:42:19;11.45;;;4.50;;
18881;SDS011;9573;50.948;11.600;2023-06-14T06:44:47;13.52;;;4.55;;
18881;SDS011;9573;50.948;11.600;2023-06-14T06:47:15;7.13;;;4.13;;
18881;SDS011;9573;50.948;11.600;2023-06-14T06:49:42;15.10;;;4.40;;
18881;SDS011;9573;50.948;11.600;2023-06-14T06:52:11;13.25;;;4.35;;
18881;SDS011;9573;50.948;11.600;2023-06-14T06:54:38;10.57;;;4.55;;
18881;SDS011;9573;50.948;11.600;2023-06-14T06:57:06;9.57;;;4.20;;
18881;SDS011;9573;50.948;11.600;2023-06-14T06:59:34;13.48;;;4.70;;
18881;SDS011;9573;50.948;11.600;2023-06-14T07:02:01;15.93;;;4.47;;
18881;SDS011;9573;50.948;11.600;2023-06-14T07:04:29;9.90;;;4.53;;
18881;SDS011;9573;50.948;11.600;2023-06-14T07:06:57;14.23;;;4.30;;
18881;SDS011;9573;50.948;11.600;2023-06-14T07:09:26;14.35;;;4.65;;
18881;SDS011;9573;50.948;11.600;2023-06-14T07:11:53;12.65;;;4.30;;
18881;SDS011;9573;50.948;11.600;2023-06-14T07:14:20;7.75;;;4.20;;
18881;SDS011;9573;50.948;11.600;2023-06-14T07:16:48;10.95;;;3.95;;
18881;SDS011;9573;50.948;11.600;2023-06-14T07:19:15;15.13;;;4.25;;
18881;SDS011;9573;50.948;11.600;2023-06-14T07:21:42;9.80;;;4.28;;
18881;SDS011;9573;50.948;11.600;2023-06-14T07:24:09;8.02;;;4.20;;
18881;SDS011;9573;50.948;11.600;2023-06-14T07:26:38;9.50;;;3.97;;
18881;SDS011;9573;50.948;11.600;2023-06-14T07:29:05;9.32;;;4.18;;
18881;SDS011;9573;50.948;11.600;2023-06-14T07:31:32;16.15;;;4.65;;
18881;SDS011;9573;50.948;11.600;2023-06-14T07:33:59;12.27;;;4.43;;
18881;SDS011;9573;50.948;11.600;2023-06-14T07:36:26;12.13;;;4.55;;
18881;SDS011;9573;50.948;11.600;2023-06-14T07:38:53;11.75;;;4.60;;
18881;SDS011;9573;50.948;11.600;2023-06-14T07:41:21;9.85;;;4.38;;
18881;SDS011;9573;50.948;11.600;2023-06-14T07:43:49;9.98;;;4.30;;
18881;SDS011;9573;50.948;11.600;2023-06-14T07:46:16;10.35;;;4.10;;
18881;SDS011;9573;50.948;11.600;2023-06-14T07:48:44;15.63;;;4.20;;
18881;SDS011;9573;50.948;11.600;2023-06-14T07:51:11;10.30;;;4.03;;
18881;SDS011;9573;50.948;11.600;2023-06-14T07:53:38;7.55;;;3.90;;
18881;SDS011;9573;50.948;11.600;2023-06-14T07:56:07;12.18;;;4.20;;
18881;SDS011;9573;50.948;11.600;2023-06-14T07:58:34;12.27;;;4.65;;
18881;SDS011;9573;50.948;11.600;2023-06-14T08:01:02;9.52;;;4.38;;
18881;SDS011;9573;50.948;11.600;2023-06-14T08:03:31;13.70;;;4.18;;
18881;SDS011;9573;50.948;11.600;2023-06-14T08:05:58;15.05;;;4.68;;
18881;SDS011;9573;50.948;11.600;2023-06-14T08:08:25;12.43;;;4.57;;
18881;SDS011;9573;50.948;11.600;2023-06-14T08:10:52;13.98;;;4.50;;
18881;SDS011;9573;50.948;11.600;2023-06-14T08:13:19;12.45;;;4.40;;
18881;SDS011;9573;50.948;11.600;2023-06-14T08:15:46;14.70;;;4.15;;
18881;SDS011;9573;50.948;11.600;2023-06-14T08:18:15;11.57;;;4.10;;
18881;SDS011;9573;50.948;11.600;2023-06-14T08:20:42;12.95;;;4.60;;
18881;SDS011;9573;50.948;11.600;2023-06-14T08:23:10;9.00;;;4.15;;
18881;SDS011;9573;50.948;11.600;2023-06-14T08:25:37;10.90;;;4.55;;
18881;SDS011;9573;50.948;11.600;2023-06-14T08:28:04;13.52;;;5.10;;
18881;SDS011;9573;50.948;11.600;2023-06-14T08:30:31;12.30;;;5.22;;
18881;SDS011;9573;50.948;11.600;2023-06-14T08:32:58;9.25;;;4.50;;
18881;SDS011;9573;50.948;11.600;2023-06-14T08:35:27;18.67;;;4.93;;
18881;SDS011;9573;50.948;11.600;2023-06-14T08:37:54;11.15;;;4.60;;
18881;SDS011;9573;50.948;11.600;2023-06-14T08:40:22;11.13;;;4.47;;
18881;SDS011;9573;50.948;11.600;2023-06-14T08:42:50;13.95;;;4.72;;
18881;SDS011;9573;50.948;11.600;2023-06-14T08:45:19;13.43;;;4.45;;
18881;SDS011;9573;50.948;11.600;2023-06-14T08:47:47;15.95;;;4.90;;
18881;SDS011;9573;50.948;11.600;2023-06-14T08:50:18;9.98;;;4.30;;
18881;SDS011;9573;50.948;11.600;2023-06-14T08:52:51;11.88;;;4.80;;
18881;SDS011;9573;50.948;11.600;2023-06-14T08:55:22;10.75;;;4.35;;
18881;SDS011;9573;50.948;11.600;2023-06-14T08:57:53;14.05;;;4.10;;
18881;SDS011;9573;50.948;11.600;2023-06-14T09:00:22;12.75;;;3.60;;
18881;SDS011;9573;50.948;11.600;2023-06-14T09:02:50;16.38;;;4.40;;
18881;SDS011;9573;50.948;11.600;2023-06-14T09:05:21;16.00;;;4.40;;
18881;SDS011;9573;50.948;11.600;2023-06-14T09:07:50;7.10;;;3.70;;
18881;SDS011;9573;50.948;11.600;2023-06-14T09:10:17;8.32;;;3.70;;
18881;SDS011;9573;50.948;11.600;2023-06-14T09:12:45;10.55;;;3.90;;
18881;SDS011;9573;50.948;11.600;2023-06-14T09:15:12;10.75;;;3.83;;
18881;SDS011;9573;50.948;11.600;2023-06-14T09:17:39;9.95;;;3.55;;
18881;SDS011;9573;50.948;11.600;2023-06-14T09:20:08;10.68;;;3.88;;
18881;SDS011;9573;50.948;11.600;2023-06-14T09:22:38;9.07;;;3.83;;
18881;SDS011;9573;50.948;11.600;2023-06-14T09:25:08;6.07;;;3.42;;
18881;SDS011;9573;50.948;11.600;2023-06-14T09:27:37;10.70;;;3.78;;
18881;SDS011;9573;50.948;11.600;2023-06-14T09:30:08;11.55;;;3.60;;
18881;SDS011;9573;50.948;11.600;2023-06-14T09:32:37;9.65;;;3.80;;
18881;SDS011;9573;50.948;11.600;2023-06-14T09:35:05;16.33;;;4.00;;
18881;SDS011;9573;50.948;11.600;2023-06-14T09:37:33;9.63;;;3.60;;
18881;SDS011;9573;50.948;11.600;2023-06-14T09:40:03;9.75;;;3.50;;
18881;SDS011;9573;50.948;11.600;2023-06-14T09:42:33;9.27;;;3.58;;
18881;SDS011;9573;50.948;11.600;2023-06-14T09:45:02;9.70;;;3.60;;
18881;SDS011;9573;50.948;11.600;2023-06-14T09:47:30;8.02;;;3.90;;
18881;SDS011;9573;50.948;11.600;2023-06-14T09:49:57;12.57;;;4.20;;
18881;SDS011;9573;50.948;11.600;2023-06-14T09:52:25;16.20;;;4.22;;
18881;SDS011;9573;50.948;11.600;2023-06-14T09:54:55;12.95;;;3.92;;
18881;SDS011;9573;50.948;11.600;2023-06-14T09:57:23;11.55;;;4.03;;
18881;SDS011;9573;50.948;11.600;2023-06-14T09:59:56;11.30;;;3.55;;
18881;SDS011;9573;50.948;11.600;2023-06-14T10:02:26;12.02;;;4.25;;
18881;SDS011;9573;50.948;11.600;2023-06-14T10:04:58;10.00;;;4.10;;
18881;SDS011;9573;50.948;11.600;2023-06-14T10:07:32;10.35;;;4.03;;
18881;SDS011;9573;50.948;11.600;2023-06-14T10:10:03;10.32;;;4.10;;
18881;SDS011;9573;50.948;11.600;2023-06-14T10:12:31;10.68;;;4.00;;
18881;SDS011;9573;50.948;11.600;2023-06-14T10:15:00;14.77;;;3.85;;
18881;SDS011;9573;50.948;11.600;2023-06-14T10:17:32;12.32;;;4.20;;
18881;SDS011;9573;50.948;11.600;2023-06-14T10:20:18;13.07;;;3.85;;
18881;SDS011;9573;50.948;11.600;2023-06-14T10:23:00;10.80;;;3.58;;
18881;SDS011;9573;50.948;11.600;2023-06-14T10:25:35;8.02;;;3.58;;
18881;SDS011;9573;50.948;11.600;2023-06-14T10:28:02;7.38;;;3.78;;
18881;SDS011;9573;50.948;11.600;2023-06-14T10:30:55;10.02;;;3.95;;
18881;SDS011;9573;50.948;11.600;2023-06-14T10:33:32;7.43;;;3.72;;
18881;SDS011;9573;50.948;11.600;2023-06-14T10:36:10;13.60;;;3.92;;
18881;SDS011;9573;50.948;11.600;2023-06-14T10:38:59;11.50;;;3.92;;
18881;SDS011;9573;50.948;11.600;2023-06-14T10:41:31;11.93;;;3.88;;
18881;SDS011;9573;50.948;11.600;2023-06-14T10:47:13;7.32;;;3.42;;
18881;SDS011;9573;50.948;11.600;2023-06-14T10:49:52;9.18;;;3.60;;
18881;SDS011;9573;50.948;11.600;2023-06-14T10:52:22;11.82;;;3.60;;
18881;SDS011;9573;50.948;11.600;2023-06-14T10:55:06;13.02;;;3.80;;
18881;SDS011;9573;50.948;11.600;2023-06-14T10:57:39;7.63;;;3.50;;
18881;SDS011;9573;50.948;11.600;2023-06-14T11:00:11;9.10;;;3.53;;
18881;SDS011;9573;50.948;11.600;2023-06-14T11:02:59;10.35;;;3.47;;
18881;SDS011;9573;50.948;11.600;2023-06-14T11:06:12;6.78;;;3.40;;
18881;SDS011;9573;50.948;11.600;2023-06-14T11:11:49;9.57;;;3.83;;
18881;SDS011;9573;50.948;11.600;2023-06-14T11:14:20;5.53;;;3.50;;
18881;SDS011;9573;50.948;11.600;2023-06-14T11:16:47;9.45;;;3.90;;
18881;SDS011;9573;50.948;11.600;2023-06-14T11:19:16;12.32;;;3.58;;
18881;SDS011;9573;50.948;11.600;2023-06-14T11:21:46;9.55;;;3.78;;
18881;SDS011;9573;50.948;11.600;2023-06-14T11:24:14;11.93;;;3.72;;
18881;SDS011;9573;50.948;11.600;2023-06-14T11:26:43;13.43;;;3.90;;
18881;SDS011;9573;50.948;11.600;2023-06-14T11:29:10;11.50;;;3.85;;
18881;SDS011;9573;50.948;11.600;2023-06-14T11:31:37;5.93;;;3.42;;
18881;SDS011;9573;50.948;11.600;2023-06-14T11:34:09;9.63;;;4.00;;
18881;SDS011;9573;50.948;11.600;2023-06-14T11:36:39;9.77;;;3.90;;
18881;SDS011;9573;50.948;11.600;2023-06-14T11:39:06;11.38;;;3.65;;
18881;SDS011;9573;50.948;11.600;2023-06-14T11:41:37;15.02;;;3.83;;
18881;SDS011;9573;50.948;11.600;2023-06-14T11:44:07;6.20;;;3.60;;
18881;SDS011;9573;50.948;11.600;2023-06-14T11:46:34;11.75;;;3.92;;
18881;SDS011;9573;50.948;11.600;2023-06-14T11:49:02;12.02;;;3.78;;
18881;SDS011;9573;50.948;11.600;2023-06-14T11:51:32;8.63;;;3.80;;
18881;SDS011;9573;50.948;11.600;2023-06-14T11:54:02;8.48;;;3.70;;
18881;SDS011;9573;50.948;11.600;2023-06-14T11:56:30;12.32;;;3.70;;
18881;SDS011;9573;50.948;11.600;2023-06-14T11:58:58;12.15;;;4.00;;
18881;SDS011;9573;50.948;11.600;2023-06-14T12:01:25;11.68;;;3.70;;
18881;SDS011;9573;50.948;11.600;2023-06-14T12:03:53;7.38;;;3.80;;
18881;SDS011;9573;50.948;11.600;2023-06-14T12:06:27;7.50;;;3.88;;
18881;SDS011;9573;50.948;11.600;2023-06-14T12:08:57;10.15;;;3.83;;
18881;SDS011;9573;50.948;11.600;2023-06-14T12:11:31;10.48;;;3.75;;
18881;SDS011;9573;50.948;11.600;2023-06-14T12:14:00;10.80;;;4.03;;
18881;SDS011;9573;50.948;11.600;2023-06-14T12:16:30;8.95;;;3.35;;
18881;SDS011;9573;50.948;11.600;2023-06-14T12:19:00;8.90;;;3.30;;
18881;SDS011;9573;50.948;11.600;2023-06-14T12:21:36;11.95;;;4.00;;
18881;SDS011;9573;50.948;11.600;2023-06-14T12:24:05;10.45;;;3.50;;
18881;SDS011;9573;50.948;11.600;2023-06-14T12:26:37;10.00;;;3.95;;
18881;SDS011;9573;50.948;11.600;2023-06-14T12:29:05;9.75;;;4.30;;
18881;SDS011;9573;50.948;11.600;2023-06-14T12:31:33;8.90;;;3.90;;
18881;SDS011;9573;50.948;11.600;2023-06-14T12:34:00;9.52;;;3.83;;
18881;SDS011;9573;50.948;11.600;2023-06-14T12:36:27;9.15;;;3.70;;
18881;SDS011;9573;50.948;11.600;2023-06-14T12:38:55;7.82;;;3.70;;
18881;SDS011;9573;50.948;11.600;2023-06-14T12:41:22;9.40;;;4.05;;
18881;SDS011;9573;50.948;11.600;2023-06-14T12:43:50;8.32;;;3.78;;
18881;SDS011;9573;50.948;11.600;2023-06-14T12:46:18;10.23;;;3.47;;
18881;SDS011;9573;50.948;11.600;2023-06-14T12:48:46;11.50;;;4.00;;
18881;SDS011;9573;50.948;11.600;2023-06-14T12:51:13;11.45;;;3.70;;
18881;SDS011;9573;50.948;11.600;2023-06-14T12:53:40;7.07;;;3.80;;
18881;SDS011;9573;50.948;11.600;2023-06-14T12:56:07;11.77;;;3.85;;
18881;SDS011;9573;50.948;11.600;2023-06-14T12:58:34;15.37;;;3.90;;
18881;SDS011;9573;50.948;11.600;2023-06-14T13:01:02;8.30;;;3.70;;
18881;SDS011;9573;50.948;11.600;2023-06-14T13:03:30;6.97;;;3.50;;
18881;SDS011;9573;50.948;11.600;2023-06-14T13:05:58;6.97;;;3.50;;
18881;SDS011;9573;50.948;11.600;2023-06-14T13:08:25;4.57;;;3.10;;
18881;SDS011;9573;50.948;11.600;2023-06-14T13:10:53;9.97;;;3.47;;
18881;SDS011;9573;50.948;11.600;2023-06-14T13:13:20;11.80;;;3.90;;
18881;SDS011;9573;50.948;11.600;2023-06-14T13:15:48;10.40;;;4.00;;
18881;SDS011;9573;50.948;11.600;2023-06-14T13:18:17;9.33;;;4.00;;
18881;SDS011;9573;50.948;11.600;2023-06-14T13:20:45;10.37;;;3.53;;
18881;SDS011;9573;50.948;11.600;2023-06-14T13:23:12;10.47;;;3.70;;
18881;SDS011;9573;50.948;11.600;2023-06-14T13:25:42;6.53;;;3.50;;
18881;SDS011;9573;50.948;11.600;2023-06-14T13:28:09;7.47;;;3.60;;
18881;SDS011;9573;50.948;11.600;2023-06-14T13:30:37;10.23;;;3.60;;
18881;SDS011;9573;50.948;11.600;2023-06-14T13:33:04;9.43;;;3.50;;
18881;SDS011;9573;50.948;11.600;2023-06-14T13:35:32;9.63;;;3.23;;
18881;SDS011;9573;50.948;11.600;2023-06-14T13:37:59;7.60;;;3.40;;
18881;SDS011;9573;50.948;11.600;2023-06-14T13:40:27;5.50;;;3.03;;
18881;SDS011;9573;50.948;11.600;2023-06-14T13:42:54;8.33;;;3.30;;
18881;SDS011;9573;50.948;11.600;2023-06-14T13:45:21;10.10;;;3.07;;
18881;SDS011;9573;50.948;11.600;2023-06-14T13:47:48;7.33;;;2.70;;
18881;SDS011;9573;50.948;11.600;2023-06-14T13:50:15;5.50;;;2.90;;
18881;SDS011;9573;50.948;11.600;2023-06-14T13:52:44;8.30;;;3.03;;
18881;SDS011;9573;50.948;11.600;2023-06-14T13:55:11;4.90;;;3.00;;
18881;SDS011;9573;50.948;11.600;2023-06-14T13:57:39;7.07;;;2.90;;
18881;SDS011;9573;50.948;11.600;2023-06-14T14:00:06;10.37;;;3.00;;
18881;SDS011;9573;50.948;11.600;2023-06-14T14:02:35;8.00;;;3.03;;
18881;SDS011;9573;50.948;11.600;2023-06-14T14:05:02;8.47;;;3.30;;
18881;SDS011;9573;50.948;11.600;2023-06-14T14:07:30;6.27;;;3.10;;
18881;SDS011;9573;50.948;11.600;2023-06-14T14:09:58;7.20;;;2.83;;
18881;SDS011;9573;50.948;11.600;2023-06-14T14:12:25;6.83;;;3.13;;
18881;SDS011;9573;50.948;11.600;2023-06-14T14:14:53;5.93;;;2.93;;
18881;SDS011;9573;50.948;11.600;2023-06-14T14:17:21;10.50;;;3.40;;
18881;SDS011;9573;50.948;11.600;2023-06-14T14:19:48;7.53;;;3.00;;
18881;SDS011;9573;50.948;11.600;2023-06-14T14:22:15;8.03;;;3.03;;
18881;SDS011;9573;50.948;11.600;2023-06-14T14:24:42;10.40;;;3.10;;
18881;SDS011;9573;50.948;11.600;2023-06-14T14:27:11;4.93;;;3.00;;
18881;SDS011;9573;50.948;11.600;2023-06-14T14:29:38;7.13;;;2.97;;
18881;SDS011;9573;50.948;11.600;2023-06-14T14:32:05;8.27;;;3.33;;
18881;SDS011;9573;50.948;11.600;2023-06-14T14:34:35;6.07;;;2.87;;
18881;SDS011;9573;50.948;11.600;2023-06-14T14:37:02;5.80;;;3.00;;
18881;SDS011;9573;50.948;11.600;2023-06-14T14:39:30;7.37;;;3.20;;
18881;SDS011;9573;50.948;11.600;2023-06-14T14:41:58;6.30;;;2.90;;
18881;SDS011;9573;50.948;11.600;2023-06-14T14:44:26;4.23;;;2.77;;
18881;SDS011;9573;50.948;11.600;2023-06-14T14:46:53;4.33;;;2.80;;
18881;SDS011;9573;50.948;11.600;2023-06-14T14:49:20;4.33;;;2.80;;
18881;SDS011;9573;50.948;11.600;2023-06-14T14:51:48;6.80;;;3.10;;
18881;SDS011;9573;50.948;11.600;2023-06-14T14:54:15;8.60;;;3.13;;